ケアンズ の空港の天気 - METARとTAF

ケアンズ国際空港 ( YBCS / CNS ) - オーストラリア クイーンズランド州ケアンズ
飛行場実況気象(Metar)
観測時間10/21 04:00 AEST (10/20 18:00 UTC)
風向・風速東南東 2m/s
視程10km以上
天気現象
少しの雲 雲底高度 760m
気温22℃
湿度88%
気圧1013hPa
METARYBCS 201800Z 12004KT 9999 FEW025 22/20 Q1013 NOSIG
過去の天気等 Google飛行場航空写真 Wunderground天気予報

過去48時間のMETAR

飛行場予報(TAF)
発表時間: 10/21 03:21 AEST (10/20 17:21 UTC)
予報対象時間: 21日4時 AEST ~ 22日4時 AEST
風向・風速南南東 3m/s
視程10km以上
少しの雲 雲底高度 760m
全天の4割程度の雲 雲底高度 1220m
21日11時 AEST から
風向・風速北東 5m/s
視程10km以上
少しの雲 雲底高度 1070m
21日18時 AEST から
風向・風速南南東 3m/s
視程10km以上
少しの雲 雲底高度 760m
全天の4割程度の雲 雲底高度 1220m
TAF YBCS 201721Z 2018/2118 16006KT 9999 FEW025 SCT040
FM210100 04010KT 9999 FEW035
FM210800 16006KT 9999 FEW025 SCT040